createdAt,value
2023-01-26T00:04:49.508Z,3.43
2023-01-26T00:09:48.500Z,3.42
2023-01-26T00:14:53.395Z,3.34
2023-01-26T00:19:56.907Z,3.15
2023-01-26T00:24:55.604Z,3.29
2023-01-26T00:29:54.393Z,3.24
2023-01-26T00:34:54.796Z,3.16
2023-01-26T00:39:53.564Z,3.26
2023-01-26T00:44:52.900Z,3.37
2023-01-26T00:49:51.705Z,3.40
2023-01-26T00:54:54.750Z,3.26
2023-01-26T00:59:53.548Z,3.20
2023-01-26T01:04:52.414Z,3.29
2023-01-26T01:09:52.545Z,3.40
2023-01-26T01:14:55.650Z,3.53
2023-01-26T01:19:55.836Z,3.48
2023-01-26T01:24:55.936Z,3.48
2023-01-26T01:29:55.396Z,3.47
2023-01-26T01:34:54.118Z,3.49
2023-01-26T01:39:53.517Z,3.51
2023-01-26T01:45:37.347Z,3.41
2023-01-26T01:50:40.489Z,3.25
2023-01-26T01:55:39.478Z,3.18
2023-01-26T02:00:39.674Z,3.32
2023-01-26T02:05:45.766Z,3.30
2023-01-26T02:10:47.573Z,3.24
2023-01-26T02:15:48.342Z,3.33
2023-01-26T02:20:50.780Z,3.24
2023-01-26T02:26:00.214Z,3.34
2023-01-26T02:31:01.178Z,3.38
2023-01-26T02:36:02.804Z,3.49
2023-01-26T02:41:08.393Z,3.62
2023-01-26T02:46:07.333Z,3.77
2023-01-26T02:51:11.364Z,3.72
2023-01-26T02:56:11.628Z,3.63
2023-01-26T03:01:10.581Z,3.70
2023-01-26T03:06:18.596Z,3.62
2023-01-26T03:11:18.765Z,3.70
2023-01-26T03:16:18.673Z,3.81
2023-01-26T03:21:35.506Z,3.53
2023-01-26T03:26:54.231Z,3.25
2023-01-26T03:31:53.975Z,2.82
2023-01-26T03:36:53.373Z,2.99
2023-01-26T03:42:11.767Z,3.00
2023-01-26T03:47:28.112Z,3.07
2023-01-26T03:52:44.717Z,2.99
2023-01-26T03:57:44.981Z,2.85
2023-01-26T04:03:01.543Z,2.83
2023-01-26T04:08:23.844Z,2.87
2023-01-26T04:13:52.667Z,2.93
2023-01-26T04:19:18.213Z,3.08
2023-01-26T04:24:21.950Z,2.91
2023-01-26T04:29:26.711Z,2.93
2023-01-26T04:34:25.559Z,3.28
2023-01-26T04:39:24.512Z,3.48
2023-01-26T04:44:28.346Z,3.51
2023-01-26T04:49:27.355Z,3.27
2023-01-26T04:54:26.995Z,3.25
2023-01-26T04:59:26.015Z,3.45
2023-01-26T05:04:31.087Z,3.46
2023-01-26T05:09:31.031Z,3.30
2023-01-26T05:14:46.416Z,3.45
2023-01-26T05:20:14.140Z,3.43
2023-01-26T05:25:30.118Z,3.45
2023-01-26T05:30:35.856Z,3.45
2023-01-26T05:35:37.609Z,3.49
2023-01-26T05:40:39.753Z,3.18
2023-01-26T05:45:38.777Z,3.12
2023-01-26T05:50:39.261Z,3.02
2023-01-26T05:55:52.418Z,2.86
2023-01-26T06:00:54.594Z,2.74
2023-01-26T06:06:00.260Z,2.74
2023-01-26T06:11:11.597Z,2.87
2023-01-26T06:16:31.172Z,3.02
2023-01-26T06:21:32.421Z,2.95
2023-01-26T06:26:31.554Z,2.65
2023-01-26T06:31:30.939Z,2.43
2023-01-26T06:36:33.715Z,2.41
2023-01-26T06:41:35.102Z,2.38
2023-01-26T06:46:34.135Z,2.38
2023-01-26T06:51:57.146Z,2.49
2023-01-26T06:57:09.881Z,2.59
2023-01-26T07:02:24.411Z,2.37
2023-01-26T07:07:24.627Z,2.39
2023-01-26T07:12:23.424Z,2.64
2023-01-26T07:17:22.385Z,2.41
2023-01-26T07:22:21.195Z,2.45
2023-01-26T07:27:21.399Z,2.16
2023-01-26T07:32:20.261Z,2.06
2023-01-26T07:37:19.211Z,1.99
2023-01-26T07:42:17.990Z,2.02
2023-01-26T07:47:21.210Z,2.03
2023-01-26T07:52:20.060Z,2.29
2023-01-26T07:57:18.985Z,2.34
2023-01-26T08:02:17.698Z,2.33
2023-01-26T08:07:17.884Z,2.47
2023-01-26T08:12:16.644Z,2.55
2023-01-26T08:17:17.603Z,2.75
2023-01-26T08:22:17.974Z,2.75
2023-01-26T08:27:17.372Z,2.82
2023-01-26T08:32:16.306Z,2.97
2023-01-26T08:37:15.151Z,2.73
2023-01-26T08:42:15.387Z,2.73
2023-01-26T08:47:14.371Z,2.82
2023-01-26T08:52:13.322Z,2.86
2023-01-26T08:57:12.349Z,2.73
2023-01-26T09:02:12.803Z,2.75
2023-01-26T09:07:13.387Z,2.97
2023-01-26T09:12:12.493Z,2.96
2023-01-26T09:17:12.869Z,3.02
2023-01-26T09:22:11.645Z,3.25
2023-01-26T09:27:10.686Z,3.18
2023-01-26T09:32:09.593Z,3.12
2023-01-26T09:37:09.932Z,3.01
2023-01-26T09:42:27.778Z,2.99
2023-01-26T09:47:33.361Z,3.11
2023-01-26T09:52:36.930Z,3.10
2023-01-26T09:57:39.341Z,3.29
2023-01-26T10:02:52.620Z,3.52
2023-01-26T10:07:52.853Z,3.60
2023-01-26T10:12:54.802Z,3.46
2023-01-26T10:17:56.301Z,3.57
2023-01-26T10:23:03.962Z,4.12
2023-01-26T10:28:12.599Z,3.88
2023-01-26T10:33:17.874Z,3.91
2023-01-26T10:38:40.737Z,3.94
2023-01-26T10:43:43.420Z,3.81
2023-01-26T10:48:53.405Z,3.83
2023-01-26T10:54:20.283Z,3.76
2023-01-26T10:59:29.136Z,3.97
2023-01-26T11:04:29.518Z,4.10
2023-01-26T11:09:31.700Z,4.12
2023-01-26T11:14:32.231Z,4.09
2023-01-26T11:19:55.871Z,4.23
2023-01-26T11:25:07.222Z,4.16
2023-01-26T11:30:52.884Z,4.11
2023-01-26T11:36:05.097Z,4.21
2023-01-26T11:41:28.785Z,4.17
2023-01-26T11:46:41.421Z,4.01
2023-01-26T11:51:56.630Z,3.99
2023-01-26T11:57:04.738Z,4.05
2023-01-26T12:02:07.649Z,3.91
2023-01-26T12:07:14.091Z,3.77
2023-01-26T12:12:20.802Z,3.79
2023-01-26T12:17:33.737Z,3.68
2023-01-26T12:22:35.428Z,3.77
2023-01-26T12:27:43.314Z,3.47
2023-01-26T12:32:42.580Z,3.44
2023-01-26T12:38:17.305Z,4.02
2023-01-26T12:43:38.419Z,3.71
2023-01-26T12:48:43.547Z,3.88
2023-01-26T12:53:52.359Z,3.81
2023-01-26T12:58:56.638Z,3.80
2023-01-26T13:03:58.261Z,3.82
2023-01-26T13:09:19.277Z,3.83
2023-01-26T13:14:37.958Z,3.67
2023-01-26T13:19:38.454Z,4.05
2023-01-26T13:24:44.470Z,3.86
2023-01-26T13:29:56.003Z,3.76
2023-01-26T13:34:58.014Z,3.99
2023-01-26T13:40:00.726Z,4.10
2023-01-26T13:45:05.941Z,4.03
2023-01-26T13:50:23.833Z,4.05
2023-01-26T13:55:26.654Z,4.06
2023-01-26T14:00:26.980Z,4.10
2023-01-26T14:05:26.037Z,4.13
2023-01-26T14:10:25.181Z,4.34
2023-01-26T14:15:27.645Z,4.39
2023-01-26T14:20:30.150Z,4.38
2023-01-26T14:25:29.096Z,4.62
2023-01-26T14:30:31.561Z,4.68
2023-01-26T14:35:31.115Z,4.64
2023-01-26T14:40:30.470Z,4.74
2023-01-26T14:45:33.522Z,4.83
2023-01-26T14:50:33.165Z,4.79
2023-01-26T14:55:34.715Z,4.81
2023-01-26T15:00:37.415Z,4.81
2023-01-26T15:05:38.327Z,4.95
2023-01-26T15:10:38.972Z,4.79
2023-01-26T15:15:41.858Z,4.72
2023-01-26T15:20:43.679Z,4.65
2023-01-26T15:25:46.008Z,4.75
2023-01-26T15:30:51.026Z,4.86
2023-01-26T15:35:58.897Z,4.97
2023-01-26T15:40:59.161Z,4.67
2023-01-26T15:46:00.161Z,4.83
2023-01-26T15:50:59.044Z,4.66
2023-01-26T15:55:58.713Z,4.85
2023-01-26T16:00:59.510Z,4.80
2023-01-26T16:05:58.336Z,4.89
2023-01-26T16:10:59.711Z,4.90
2023-01-26T16:15:59.902Z,5.06
2023-01-26T16:20:58.947Z,5.00
2023-01-26T16:25:57.715Z,5.00
2023-01-26T16:30:56.667Z,4.85
2023-01-26T16:35:56.965Z,5.02
2023-01-26T16:40:55.957Z,5.08
2023-01-26T16:45:55.369Z,5.05
2023-01-26T16:50:56.726Z,4.91
2023-01-26T16:55:56.287Z,5.09
2023-01-26T17:00:55.659Z,5.07
2023-01-26T17:05:59.035Z,5.11
2023-01-26T17:11:02.582Z,5.19
2023-01-26T17:16:01.820Z,5.23
2023-01-26T17:21:05.019Z,5.27
2023-01-26T17:26:03.842Z,5.27
2023-01-26T17:31:07.757Z,5.11
2023-01-26T17:36:09.998Z,5.22
2023-01-26T17:41:09.761Z,5.16
2023-01-26T17:46:11.593Z,5.10
2023-01-26T17:51:18.951Z,5.31
2023-01-26T17:56:19.815Z,5.37
2023-01-26T18:01:22.862Z,5.34
2023-01-26T18:06:23.178Z,5.35
2023-01-26T18:11:22.468Z,5.09
2023-01-26T18:16:22.303Z,5.21
2023-01-26T18:21:24.562Z,5.12
2023-01-26T18:26:25.294Z,5.20
2023-01-26T18:31:25.851Z,5.18
2023-01-26T18:36:26.860Z,5.29
2023-01-26T18:41:27.262Z,5.15
2023-01-26T18:46:28.922Z,5.27
2023-01-26T18:51:30.524Z,5.09
2023-01-26T18:56:29.459Z,5.22
2023-01-26T19:01:28.473Z,5.24
2023-01-26T19:06:31.123Z,5.24
2023-01-26T19:11:33.130Z,5.29
2023-01-26T19:16:32.649Z,5.27
2023-01-26T19:21:34.076Z,5.34
2023-01-26T19:26:33.509Z,5.43
2023-01-26T19:31:32.547Z,5.40
2023-01-26T19:36:34.871Z,5.49
2023-01-26T19:41:33.916Z,5.63
2023-01-26T19:46:34.056Z,5.60
2023-01-26T19:51:34.741Z,5.36
2023-01-26T19:56:36.392Z,5.39
2023-01-26T20:01:37.257Z,5.34
2023-01-26T20:06:39.196Z,5.13
2023-01-26T20:11:41.266Z,5.21
2023-01-26T20:16:41.186Z,5.25
2023-01-26T20:21:41.560Z,4.99
2023-01-26T20:26:40.652Z,4.92
2023-01-26T20:31:40.344Z,4.83
2023-01-26T20:36:40.542Z,4.44
2023-01-26T20:41:40.998Z,4.48
2023-01-26T20:46:42.054Z,4.53
2023-01-26T20:51:42.752Z,4.50
2023-01-26T20:56:43.209Z,4.24
2023-01-26T21:01:42.215Z,4.29
2023-01-26T21:06:42.018Z,4.26
2023-01-26T21:11:42.336Z,4.14
2023-01-26T21:16:41.684Z,4.32
2023-01-26T21:21:40.521Z,4.39
2023-01-26T21:26:39.371Z,4.08
2023-01-26T21:31:39.589Z,4.13
2023-01-26T21:36:38.412Z,4.27
2023-01-26T21:41:55.131Z,4.25
2023-01-26T21:46:58.733Z,4.21
2023-01-26T21:52:15.544Z,4.31
2023-01-26T21:57:32.554Z,4.18
2023-01-26T22:02:32.894Z,4.11
2023-01-26T22:07:32.324Z,4.19
2023-01-26T22:12:31.508Z,4.22
2023-01-26T22:17:30.354Z,4.27
2023-01-26T22:22:30.976Z,4.32
2023-01-26T22:27:29.778Z,4.28
2023-01-26T22:32:28.619Z,4.25
2023-01-26T22:37:27.477Z,4.41
2023-01-26T22:42:27.755Z,4.48
2023-01-26T22:47:26.541Z,4.46
2023-01-26T22:52:25.583Z,4.35
2023-01-26T22:57:24.383Z,4.32
2023-01-26T23:02:24.581Z,4.50
2023-01-26T23:07:24.567Z,4.45
2023-01-26T23:12:23.540Z,4.42
2023-01-26T23:17:22.495Z,4.48
2023-01-26T23:22:23.540Z,4.66
2023-01-26T23:27:22.639Z,4.62
2023-01-26T23:32:21.661Z,4.87
2023-01-26T23:37:20.534Z,4.60
2023-01-26T23:42:20.748Z,4.40
2023-01-26T23:47:19.669Z,4.35
2023-01-26T23:52:18.678Z,4.31
2023-01-26T23:57:17.591Z,4.51
